createdAt,value
2022-08-09T00:00:04.315Z,100964.16
2022-08-09T00:02:34.114Z,100961.59
2022-08-09T00:06:12.217Z,100965.25
2022-08-09T00:07:48.496Z,100967.16
2022-08-09T00:10:21.112Z,100969.97
2022-08-09T00:12:52.588Z,100962.94
2022-08-09T00:15:26.463Z,100961.22
2022-08-09T00:18:07.721Z,100966.78
2022-08-09T00:20:42.564Z,100963.38
2022-08-09T00:23:55.325Z,100967.16
2022-08-09T00:26:05.078Z,100960.34
2022-08-09T00:28:32.259Z,100962.25
2022-08-09T00:31:09.114Z,100969.56
2022-08-09T00:33:51.122Z,100959.81
2022-08-09T00:36:18.788Z,100972.44
2022-08-09T00:38:46.123Z,100963.84
2022-08-09T00:44:15.771Z,100969.28
2022-08-09T00:44:25.051Z,100959.69
2022-08-09T00:46:57.365Z,100961.72
2022-08-09T00:49:31.173Z,100965.59
2022-08-09T00:52:02.189Z,100969.47
2022-08-09T00:54:36.281Z,100967.16
2022-08-09T00:57:10.279Z,100962.16
2022-08-09T00:59:41.512Z,100963.38
2022-08-09T01:02:20.128Z,100960.94
2022-08-09T01:05:14.117Z,100963.94
2022-08-09T01:08:08.934Z,100960.56
2022-08-09T01:11:09.706Z,100957.13
2022-08-09T01:13:58.754Z,100954.34
2022-08-09T01:16:33.102Z,100954.56
2022-08-09T01:19:16.890Z,100960.78
2022-08-09T01:22:20.474Z,100962.09
2022-08-09T01:25:24.102Z,100956.75
2022-08-09T01:27:57.950Z,100962.84
2022-08-09T01:30:35.743Z,100961.09
2022-08-09T01:33:18.192Z,100963.06
2022-08-09T01:35:59.232Z,100966.06
2022-08-09T01:38:29.922Z,100961.59
2022-08-09T01:41:06.320Z,100961.69
2022-08-09T01:43:50.108Z,100967.91
2022-08-09T01:46:26.504Z,100963.75
2022-08-09T01:48:57.263Z,100966.41
2022-08-09T01:51:32.507Z,100974.66
2022-08-09T01:54:01.292Z,100966.03
2022-08-09T01:56:30.570Z,100967.72
2022-08-09T01:59:01.552Z,100967.28
2022-08-09T02:01:30.686Z,100965.81
2022-08-09T02:04:18.326Z,100967.88
2022-08-09T02:07:05.443Z,100975.13
2022-08-09T02:09:42.004Z,100976.19
2022-08-09T02:12:13.358Z,100971.94
2022-08-09T02:14:48.736Z,100977.38
2022-08-09T02:18:00.023Z,100977.38
2022-08-09T02:20:08.984Z,100984.41
2022-08-09T02:22:56.663Z,100979.53
2022-08-09T02:25:26.387Z,100988.25
2022-08-09T02:28:07.132Z,100985.09
2022-08-09T02:30:41.621Z,100983.16
2022-08-09T02:33:14.481Z,100984.09
2022-08-09T02:36:02.888Z,100986.78
2022-08-09T02:38:41.331Z,100980.94
2022-08-09T02:41:19.578Z,100984.34
2022-08-09T02:43:54.674Z,100978.25
2022-08-09T02:46:27.670Z,100980.31
2022-08-09T02:48:56.770Z,100974.22
2022-08-09T02:51:26.410Z,100975.06
2022-08-09T02:54:01.112Z,100978.06
2022-08-09T02:56:30.439Z,100971.13
2022-08-09T02:58:57.991Z,100967.84
2022-08-09T03:01:29.128Z,100962.63
2022-08-09T03:04:17.449Z,100967.44
2022-08-09T03:06:48.794Z,100964.88
2022-08-09T03:09:17.288Z,100961.59
2022-08-09T03:12:05.900Z,100964.25
2022-08-09T03:14:32.982Z,100960.84
2022-08-09T03:17:01.834Z,100967.13
2022-08-09T03:19:52.216Z,100963.59
2022-08-09T03:22:25.630Z,100966.38
2022-08-09T03:25:20.990Z,100965.53
2022-08-09T03:27:51.777Z,100970.25
2022-08-09T03:30:33.179Z,100970.25
2022-08-09T03:33:13.360Z,100970.44
2022-08-09T03:36:15.816Z,100967.03
2022-08-09T03:38:32.747Z,100966.28
2022-08-09T03:40:59.410Z,100969.16
2022-08-09T03:43:31.551Z,100962.34
2022-08-09T03:46:03.281Z,100974.09
2022-08-09T03:48:51.872Z,100968.84
2022-08-09T03:51:57.276Z,100968.84
2022-08-09T03:54:10.871Z,100969.81
2022-08-09T03:56:41.152Z,100968.03
2022-08-09T03:59:17.005Z,100975.25
2022-08-09T04:01:49.190Z,100971.75
2022-08-09T04:04:16.934Z,100978.13
2022-08-09T04:06:48.843Z,100974.53
2022-08-09T04:09:42.116Z,100973.66
2022-08-09T04:12:12.088Z,100977.50
2022-08-09T04:15:01.336Z,100973.66
2022-08-09T04:17:29.776Z,100977.28
2022-08-09T04:19:56.621Z,100975.59
2022-08-09T04:22:23.688Z,100976.53
2022-08-09T04:24:50.367Z,100970.47
2022-08-09T04:27:17.405Z,100974.06
2022-08-09T04:29:50.474Z,100975.88
2022-08-09T04:32:31.619Z,100981.13
2022-08-09T04:35:01.259Z,100983.69
2022-08-09T04:37:42.033Z,100983.69
2022-08-09T04:40:19.547Z,100980.16
2022-08-09T04:43:00.851Z,100982.72
2022-08-09T04:45:30.784Z,100982.81
2022-08-09T04:48:02.090Z,100992.50
2022-08-09T04:50:35.039Z,100993.47
2022-08-09T04:53:13.141Z,100996.16
2022-08-09T04:55:57.233Z,100998.03
2022-08-09T04:58:26.061Z,100998.16
2022-08-09T05:00:54.418Z,101004.31
2022-08-09T05:03:40.169Z,101000.81
2022-08-09T05:06:08.942Z,101010.50
2022-08-09T05:08:36.014Z,101007.84
2022-08-09T05:11:03.491Z,101016.69
2022-08-09T05:13:33.948Z,101018.44
2022-08-09T05:16:05.328Z,101009.47
2022-08-09T05:18:50.389Z,101016.50
2022-08-09T05:21:24.745Z,101018.22
2022-08-09T05:24:00.031Z,101016.28
2022-08-09T05:26:36.776Z,101023.31
2022-08-09T05:29:04.211Z,101026.75
2022-08-09T05:31:44.289Z,101032.81
2022-08-09T05:34:16.343Z,101032.81
2022-08-09T05:36:43.935Z,101034.22
2022-08-09T05:39:14.363Z,101035.06
2022-08-09T05:41:55.892Z,101029.63
2022-08-09T05:44:29.157Z,101034.84
2022-08-09T05:47:00.165Z,101032.06
2022-08-09T05:50:30.096Z,101039.00
2022-08-09T05:52:13.926Z,101040.50
2022-08-09T05:54:42.393Z,101047.41
2022-08-09T05:57:12.731Z,101046.25
2022-08-09T05:59:40.759Z,101049.56
2022-08-09T06:02:09.163Z,101049.34
2022-08-09T06:04:36.871Z,101048.16
2022-08-09T06:07:11.543Z,101045.28
2022-08-09T06:10:01.743Z,101047.75
2022-08-09T06:12:29.967Z,101045.69
2022-08-09T06:15:01.030Z,101038.47
2022-08-09T06:17:40.373Z,101049.75
2022-08-09T06:20:08.121Z,101056.69
2022-08-09T06:22:35.146Z,101048.38
2022-08-09T06:25:02.007Z,101052.63
2022-08-09T06:27:42.032Z,101054.94
2022-08-09T06:30:14.121Z,101055.59
2022-08-09T06:32:53.406Z,101062.44
2022-08-09T06:35:35.631Z,101063.06
2022-08-09T06:38:16.065Z,101063.56
2022-08-09T06:40:43.404Z,101065.09
2022-08-09T06:43:10.652Z,101066.56
2022-08-09T06:46:06.665Z,101066.25
2022-08-09T06:48:30.579Z,101064.19
2022-08-09T06:50:57.381Z,101064.81
2022-08-09T06:53:24.755Z,101066.31
2022-08-09T06:55:51.289Z,101068.66
2022-08-09T06:58:40.688Z,101064.78
2022-08-09T07:01:04.334Z,101068.84
2022-08-09T07:03:33.787Z,101070.16
2022-08-09T07:06:06.806Z,101061.72
2022-08-09T07:08:35.293Z,101065.00
2022-08-09T07:11:06.120Z,101058.38
2022-08-09T07:13:44.978Z,101053.53
2022-08-09T07:16:41.997Z,101058.41
2022-08-09T07:19:07.794Z,101073.88
2022-08-09T07:21:34.515Z,101069.03
2022-08-09T07:24:03.422Z,101069.41
2022-08-09T07:26:32.034Z,101069.81
2022-08-09T07:29:08.410Z,101073.75
2022-08-09T07:31:45.529Z,101073.16
2022-08-09T07:34:20.819Z,101080.56
2022-08-09T07:36:47.858Z,101082.91
2022-08-09T07:39:20.473Z,101084.50
2022-08-09T07:42:02.452Z,101075.00
2022-08-09T07:44:51.177Z,101075.38
2022-08-09T07:47:16.208Z,101081.00
2022-08-09T07:50:04.847Z,101085.00
2022-08-09T07:52:29.884Z,101081.59
2022-08-09T07:54:57.443Z,101078.44
2022-08-09T07:57:35.651Z,101079.56
2022-08-09T08:00:05.023Z,101080.66
2022-08-09T08:02:36.651Z,101091.59
2022-08-09T08:05:17.989Z,101092.78
2022-08-09T08:08:06.577Z,101080.63
2022-08-09T08:10:34.371Z,101080.72
2022-08-09T08:13:01.481Z,101085.31
2022-08-09T08:15:35.557Z,101092.72
2022-08-09T08:18:04.519Z,101089.38
2022-08-09T08:20:33.030Z,101086.94
2022-08-09T08:23:06.618Z,101091.53
2022-08-09T08:25:46.015Z,101089.81
2022-08-09T08:28:15.189Z,101090.72
2022-08-09T08:30:44.113Z,101097.28
2022-08-09T08:33:12.132Z,101097.34
2022-08-09T08:35:58.772Z,101100.09
2022-08-09T08:38:28.051Z,101091.97
2022-08-09T08:40:56.129Z,101091.91
2022-08-09T08:43:23.919Z,101087.47
2022-08-09T08:46:09.993Z,101096.41
2022-08-09T08:48:51.762Z,101097.03
2022-08-09T08:51:22.557Z,101096.78
2022-08-09T08:54:03.810Z,101100.09
2022-08-09T08:56:37.648Z,101098.13
2022-08-09T08:59:19.850Z,101096.34
2022-08-09T09:01:52.854Z,101098.50
2022-08-09T09:04:27.711Z,101088.47
2022-08-09T09:06:58.160Z,101094.53
2022-08-09T09:09:58.189Z,101091.59
2022-08-09T09:12:16.733Z,101098.38
2022-08-09T09:14:44.771Z,101105.44
2022-08-09T09:17:12.983Z,101115.22
2022-08-09T09:19:44.247Z,101117.88
2022-08-09T09:22:16.726Z,101111.81
2022-08-09T09:25:00.777Z,101112.47
2022-08-09T09:28:06.775Z,101115.81
2022-08-09T09:30:44.055Z,101118.34
2022-08-09T09:33:16.361Z,101113.78
2022-08-09T09:36:02.105Z,101102.59
2022-08-09T09:38:49.296Z,101107.22
2022-08-09T09:41:28.019Z,101101.06
2022-08-09T09:44:12.055Z,101097.31
2022-08-09T09:46:51.503Z,101096.41
2022-08-09T09:49:50.271Z,101101.75
2022-08-09T09:52:16.554Z,101086.91
2022-08-09T09:55:16.255Z,101087.69
2022-08-09T09:58:15.891Z,101085.63
2022-08-09T10:01:35.858Z,101092.47
2022-08-09T10:04:09.484Z,101091.59
2022-08-09T10:06:43.471Z,101087.97
2022-08-09T10:09:22.752Z,101083.16
2022-08-09T10:12:14.523Z,101076.31
2022-08-09T10:14:48.988Z,101091.91
2022-08-09T10:17:50.945Z,101097.22
2022-08-09T10:20:27.409Z,101095.06
2022-08-09T10:23:17.066Z,101092.09
2022-08-09T10:26:06.881Z,101085.75
2022-08-09T10:28:33.951Z,101094.28
2022-08-09T10:34:08.782Z,101087.91
2022-08-09T10:36:35.505Z,101081.69
2022-08-09T10:39:02.301Z,101081.19
2022-08-09T10:41:28.966Z,101083.59
2022-08-09T10:44:01.319Z,101083.44
2022-08-09T10:48:12.620Z,101084.25
2022-08-09T10:50:06.234Z,101081.88
2022-08-09T10:52:51.773Z,101082.88
2022-08-09T10:55:55.234Z,101088.63
2022-08-09T10:58:35.013Z,101086.88
2022-08-09T11:03:06.628Z,101088.81
2022-08-09T11:04:31.275Z,101077.72
2022-08-09T11:06:59.792Z,101077.50
2022-08-09T11:09:41.294Z,101071.50
2022-08-09T11:12:29.851Z,101075.09
2022-08-09T11:15:24.286Z,101075.75
2022-08-09T11:18:03.640Z,101077.09
2022-08-09T11:20:45.406Z,101079.44
2022-08-09T11:23:12.123Z,101075.13
2022-08-09T11:25:47.942Z,101065.69
2022-08-09T11:28:38.550Z,101066.03
2022-08-09T11:31:49.803Z,101059.19
2022-08-09T11:34:22.056Z,101064.25
2022-08-09T11:36:49.112Z,101057.88
2022-08-09T11:39:16.658Z,101047.56
2022-08-09T11:41:43.406Z,101049.66
2022-08-09T11:44:11.948Z,101042.53
2022-08-09T11:47:00.390Z,101040.25
2022-08-09T11:50:52.472Z,101051.88
2022-08-09T11:53:21.058Z,101044.50
2022-08-09T11:55:53.494Z,101047.56
2022-08-09T11:58:32.783Z,101043.81
2022-08-09T12:01:08.539Z,101044.66
2022-08-09T12:03:57.235Z,101033.59
2022-08-09T12:06:24.764Z,101042.88
2022-08-09T12:09:01.199Z,101037.22
2022-08-09T12:11:28.719Z,101031.97
2022-08-09T12:14:10.542Z,101021.75
2022-08-09T12:16:44.974Z,101025.78
2022-08-09T12:19:13.648Z,101023.16
2022-08-09T12:21:48.504Z,101030.28
2022-08-09T12:24:24.011Z,101020.09
2022-08-09T12:29:11.254Z,101015.75
2022-08-09T12:30:00.120Z,101008.03
2022-08-09T12:32:40.911Z,101011.75
2022-08-09T12:35:12.613Z,101023.56
2022-08-09T12:37:51.665Z,101025.41
2022-08-09T12:40:24.484Z,101013.69
2022-08-09T12:42:52.255Z,101015.28
2022-08-09T12:45:34.534Z,101012.22
2022-08-09T12:48:07.968Z,101014.94
2022-08-09T12:50:47.778Z,100999.72
2022-08-09T12:53:37.862Z,101006.69
2022-08-09T12:56:42.933Z,101001.97
2022-08-09T12:59:20.532Z,101001.09
2022-08-09T13:01:59.425Z,100988.31
2022-08-09T13:04:36.497Z,100979.66
2022-08-09T13:07:16.733Z,100978.44
2022-08-09T13:09:55.725Z,100976.94
2022-08-09T13:12:30.812Z,100982.59
2022-08-09T13:15:08.506Z,100975.75
2022-08-09T13:18:03.567Z,100965.13
2022-08-09T13:20:37.288Z,100970.69
2022-08-09T13:24:16.270Z,100967.19
2022-08-09T13:26:03.746Z,100968.63
2022-08-09T13:28:35.927Z,100959.28
2022-08-09T13:32:13.423Z,100970.94
2022-08-09T13:33:56.609Z,100964.03
2022-08-09T13:36:39.026Z,100963.78
2022-08-09T13:41:19.220Z,100968.22
2022-08-09T13:42:02.515Z,100967.97
2022-08-09T13:44:30.490Z,100972.97
2022-08-09T13:47:26.686Z,100968.56
2022-08-09T13:49:56.229Z,100969.44
2022-08-09T13:52:25.158Z,100967.53
2022-08-09T13:54:58.998Z,100964.75
2022-08-09T13:57:36.332Z,100967.25
2022-08-09T14:00:12.013Z,100969.50
2022-08-09T14:02:42.831Z,100964.22
2022-08-09T14:05:56.491Z,100963.44
2022-08-09T14:08:13.101Z,100953.50
2022-08-09T14:10:50.674Z,100964.56
2022-08-09T14:14:15.153Z,100962.88
2022-08-09T14:16:13.885Z,100964.00
2022-08-09T14:18:43.175Z,100968.72
2022-08-09T14:21:17.397Z,100959.28
2022-08-09T14:23:53.786Z,100955.13
2022-08-09T14:26:31.944Z,100955.41
2022-08-09T14:29:02.986Z,100954.31
2022-08-09T14:31:36.206Z,100948.50
2022-08-09T14:34:17.637Z,100941.84
2022-08-09T14:36:58.638Z,100933.81
2022-08-09T14:39:46.575Z,100942.66
2022-08-09T14:42:12.440Z,100944.59
2022-08-09T14:44:48.434Z,100945.13
2022-08-09T14:47:26.303Z,100941.81
2022-08-09T14:50:02.946Z,100947.63
2022-08-09T14:52:29.542Z,100946.25
2022-08-09T14:54:56.118Z,100942.91
2022-08-09T14:57:31.695Z,100941.25
2022-08-09T14:59:58.950Z,100952.34
2022-08-09T15:02:27.616Z,100946.78
2022-08-09T15:04:54.175Z,100936.56
2022-08-09T15:07:20.695Z,100944.59
2022-08-09T15:10:07.194Z,100931.78
2022-08-09T15:12:34.399Z,100936.22
2022-08-09T15:15:01.062Z,100936.19
2022-08-09T15:17:28.172Z,100937.56
2022-08-09T15:19:59.467Z,100935.38
2022-08-09T15:22:26.526Z,100940.09
2022-08-09T15:24:53.672Z,100938.91
2022-08-09T15:27:21.154Z,100937.03
2022-08-09T15:30:59.794Z,100938.97
2022-08-09T15:32:35.133Z,100936.75
2022-08-09T15:35:02.364Z,100937.34
2022-08-09T15:37:56.793Z,100927.09
2022-08-09T15:40:34.862Z,100932.38
2022-08-09T15:43:01.778Z,100937.06
2022-08-09T15:45:29.349Z,100928.22
2022-08-09T15:48:05.634Z,100917.72
2022-08-09T15:50:34.641Z,100928.81
2022-08-09T15:53:17.926Z,100933.03
2022-08-09T15:56:04.593Z,100923.03
2022-08-09T15:58:39.386Z,100921.34
2022-08-09T16:01:06.270Z,100915.84
2022-08-09T16:03:38.731Z,100918.03
2022-08-09T16:06:29.403Z,100921.06
2022-08-09T16:08:56.067Z,100917.19
2022-08-09T16:11:22.887Z,100909.16
2022-08-09T16:14:03.551Z,100910.22
2022-08-09T16:16:33.241Z,100904.09
2022-08-09T16:19:01.502Z,100903.78
2022-08-09T16:21:31.677Z,100904.00
2022-08-09T16:24:02.228Z,100908.34
2022-08-09T16:26:34.823Z,100901.06
2022-08-09T16:29:21.017Z,100905.59
2022-08-09T16:32:20.275Z,100896.47
2022-08-09T16:34:56.417Z,100890.00
2022-08-09T16:37:53.751Z,100891.53
2022-08-09T16:40:13.229Z,100886.16
2022-08-09T16:42:40.756Z,100891.53
2022-08-09T16:45:12.645Z,100891.00
2022-08-09T16:48:39.465Z,100885.88
2022-08-09T16:50:33.706Z,100887.28
2022-08-09T16:53:02.350Z,100887.13
2022-08-09T16:55:31.442Z,100890.13
2022-08-09T16:58:17.028Z,100888.19
2022-08-09T17:00:43.951Z,100886.53
2022-08-09T17:03:21.303Z,100895.47
2022-08-09T17:06:06.911Z,100890.34
2022-08-09T17:08:43.202Z,100895.84
2022-08-09T17:11:24.610Z,100890.63
2022-08-09T17:14:01.404Z,100901.16
2022-08-09T17:16:28.845Z,100896.81
2022-08-09T17:18:58.374Z,100904.56
2022-08-09T17:21:29.107Z,100898.19
2022-08-09T17:24:28.071Z,100909.84
2022-08-09T17:26:42.331Z,100904.22
2022-08-09T17:29:20.440Z,100916.84
2022-08-09T17:31:49.338Z,100918.25
2022-08-09T17:35:01.100Z,100912.78
2022-08-09T17:37:02.784Z,100921.69
2022-08-09T17:39:52.233Z,100909.84
2022-08-09T17:42:40.828Z,100916.28
2022-08-09T17:45:06.525Z,100916.75
2022-08-09T17:47:49.066Z,100914.56
2022-08-09T17:50:36.190Z,100912.34
2022-08-09T17:53:04.817Z,100920.75
2022-08-09T17:55:49.576Z,100917.94
2022-08-09T17:58:19.088Z,100929.75
2022-08-09T18:00:48.072Z,100931.28
2022-08-09T18:03:17.709Z,100930.06
2022-08-09T18:05:44.373Z,100925.13
2022-08-09T18:08:10.974Z,100927.31
2022-08-09T18:10:39.939Z,100929.53
2022-08-09T18:13:39.813Z,100926.91
2022-08-09T18:16:08.245Z,100935.97
2022-08-09T18:18:36.314Z,100940.69
2022-08-09T18:21:19.506Z,100940.09
2022-08-09T18:24:11.737Z,100939.53
2022-08-09T18:26:37.939Z,100937.94
2022-08-09T18:30:41.747Z,100934.00
2022-08-09T18:31:55.672Z,100929.88
2022-08-09T18:34:24.202Z,100927.41
2022-08-09T18:36:53.551Z,100927.69
2022-08-09T18:39:22.318Z,100928.56
2022-08-09T18:41:52.812Z,100926.13
2022-08-09T18:44:25.477Z,100932.47
2022-08-09T18:47:05.432Z,100937.94
2022-08-09T18:49:41.578Z,100938.00
2022-08-09T18:52:11.540Z,100935.31
2022-08-09T18:54:39.081Z,100933.69
2022-08-09T18:57:08.640Z,100945.59
2022-08-09T18:59:43.886Z,100950.25
2022-08-09T19:02:15.976Z,100948.41
2022-08-09T19:04:47.323Z,100946.75
2022-08-09T19:07:14.470Z,100945.28
2022-08-09T19:10:14.709Z,100957.50
2022-08-09T19:12:33.898Z,100963.47
2022-08-09T19:15:06.361Z,100959.44
2022-08-09T19:17:54.534Z,100961.84
2022-08-09T19:20:20.262Z,100964.41
2022-08-09T19:22:50.305Z,100966.75
2022-08-09T19:25:42.403Z,100969.13
2022-08-09T19:28:07.365Z,100967.63
2022-08-09T19:30:33.927Z,100970.63
2022-08-09T19:33:00.429Z,100968.94
2022-08-09T19:35:27.423Z,100974.50
2022-08-09T19:37:57.509Z,100968.22
2022-08-09T19:40:34.211Z,100962.78
2022-08-09T19:43:01.820Z,100965.47
2022-08-09T19:45:39.068Z,100964.25
2022-08-09T19:48:07.170Z,100974.88
2022-08-09T19:50:49.111Z,100976.53
2022-08-09T19:53:20.652Z,100968.25
2022-08-09T19:56:02.725Z,100976.31
2022-08-09T19:58:33.020Z,100973.41
2022-08-09T20:00:59.987Z,100974.19
2022-08-09T20:04:08.593Z,100975.84
2022-08-09T20:06:23.467Z,100979.50
2022-08-09T20:08:56.561Z,100980.31
2022-08-09T20:11:26.142Z,100980.09
2022-08-09T20:13:54.508Z,100982.59
2022-08-09T20:16:32.901Z,100978.50
2022-08-09T20:19:48.900Z,100977.44
2022-08-09T20:21:57.065Z,100978.91
2022-08-09T20:24:31.741Z,100981.22
2022-08-09T20:27:01.574Z,100980.88
2022-08-09T20:29:36.927Z,100973.38
2022-08-09T20:32:29.830Z,100981.25
2022-08-09T20:34:56.561Z,100981.03
2022-08-09T20:37:23.271Z,100982.50
2022-08-09T20:40:15.530Z,100978.72
2022-08-09T20:42:37.749Z,100983.00
2022-08-09T20:46:00.492Z,100987.34
2022-08-09T20:47:52.084Z,100995.34
2022-08-09T20:50:48.075Z,100990.72
2022-08-09T20:53:05.358Z,100993.16
2022-08-09T20:56:00.711Z,101001.81
2022-08-09T20:58:32.526Z,100998.00
2022-08-09T21:01:02.468Z,100998.63
2022-08-09T21:04:35.611Z,101004.63
2022-08-09T21:06:35.133Z,101004.34
2022-08-09T21:09:02.623Z,100998.72
2022-08-09T21:14:16.692Z,101004.31
2022-08-09T21:16:44.007Z,101005.59
2022-08-09T21:20:19.432Z,101007.88
2022-08-09T21:22:00.057Z,101012.69
2022-08-09T21:24:33.732Z,101009.47
2022-08-09T21:27:10.163Z,101013.44
2022-08-09T21:29:49.445Z,101009.34
2022-08-09T21:32:18.707Z,101009.91
2022-08-09T21:34:48.399Z,101009.47
2022-08-09T21:37:17.961Z,101004.00
2022-08-09T21:40:02.672Z,101009.94
2022-08-09T21:42:29.211Z,101009.66
2022-08-09T21:44:56.112Z,101015.63
2022-08-09T21:47:22.859Z,101013.34
2022-08-09T21:49:49.644Z,101020.00
2022-08-09T21:52:20.627Z,101016.75
2022-08-09T21:55:04.206Z,101013.50
2022-08-09T21:57:39.170Z,101013.94
2022-08-09T22:00:32.103Z,101017.75
2022-08-09T22:03:02.431Z,101002.91
2022-08-09T22:05:36.132Z,101012.94
2022-08-09T22:08:06.972Z,101015.31
2022-08-09T22:11:00.495Z,101013.06
2022-08-09T22:13:34.061Z,101016.16
2022-08-09T22:16:07.594Z,101022.91
2022-08-09T22:18:35.992Z,101021.50
2022-08-09T22:21:09.871Z,101026.44
2022-08-09T22:23:59.664Z,101030.41
2022-08-09T22:26:35.022Z,101025.59
2022-08-09T22:29:07.535Z,101027.69
2022-08-09T22:31:36.112Z,101028.13
2022-08-09T22:34:03.112Z,101032.19
2022-08-09T22:36:37.378Z,101029.22
2022-08-09T22:39:47.254Z,101039.63
2022-08-09T22:42:00.486Z,101028.47
2022-08-09T22:44:29.829Z,101028.88
2022-08-09T22:48:14.135Z,101023.63
2022-08-09T22:49:45.883Z,101022.06
2022-08-09T22:52:12.438Z,101018.81
2022-08-09T22:54:42.198Z,101013.69
2022-08-09T22:57:11.991Z,101019.47
2022-08-09T22:59:58.289Z,101015.34
2022-08-09T23:02:25.520Z,101014.63
2022-08-09T23:04:54.669Z,101007.69
2022-08-09T23:08:27.684Z,101008.81
2022-08-09T23:10:31.739Z,101010.50
2022-08-09T23:12:58.859Z,101011.63
2022-08-09T23:15:25.730Z,101009.06
2022-08-09T23:17:52.246Z,100998.78
2022-08-09T23:20:18.770Z,101001.72
2022-08-09T23:22:45.309Z,101006.50
2022-08-09T23:25:12.059Z,100999.69
2022-08-09T23:27:57.396Z,101005.31
2022-08-09T23:30:25.101Z,101012.91
2022-08-09T23:32:51.586Z,101004.44
2022-08-09T23:35:18.105Z,101005.53
2022-08-09T23:37:44.611Z,101007.63
2022-08-09T23:40:11.572Z,101007.03
2022-08-09T23:42:38.118Z,101003.78
2022-08-09T23:45:08.972Z,101002.34
2022-08-09T23:47:36.113Z,101003.47
2022-08-09T23:50:02.646Z,100997.50
2022-08-09T23:52:29.177Z,101004.84
2022-08-09T23:54:57.633Z,101002.53
2022-08-09T23:57:24.170Z,101008.09
